KBMT

Beaumont Municipal Airport

Beaumont, Texas, USA
METAR KBMT 172115Z AUTO 26004KT 10SM SCT022 24/21 A3007 RMK AO2 T02420205
Observed Flight Rules
Feb-17 @ 21:15 UTC (18 minutes ago) Visual Flight Rules
Wind Visibility Clouds
260° at 4 knots 10 miles
  • Scattered at 2,200' AGL
Temperatures Readings
Current 24°C / 75°F
Dewpoint 21°C / 70°F
Humidity 83%
Altimeter 30.07" Hg
Pressure 1018 hPa
Elevation 10
METAR KBMT 172115Z AUTO 26004KT 10SM SCT022 24/21 A3007 RMK AO2 T02420205
Observed Flight Rules
Feb-17 @ 21:15 UTC
(18 minutes ago)
VFR
Wind Visibility
260° at 4 knots 10 miles
Clouds
  • Scattered at 2,200' AGL
Temperature Dewpoint
24°C / 75°F 21°C / 70°F
Humidity Altimeter Pressure
83% 30.07" Hg 1018 hPa